Terminal Aerodrome Forecast
Issued by NWS Cleveland, OH

Home | Current Version | Previous Version | Graphics & Text | Print | Product List | Glossary On
Versions: 1 2 3 4 5 6 7 8 9 10 11 12 13 14 15 16 17
270
FTUS41 KCLE 251732
TAFTOL
TAF
KTOL 251732Z 2518/2618 10006KT P6SM FEW070
     FM260500 19005KT P6SM SCT100 BKN150
     FM260900 22010KT 6SM -SHRA OVC035
     FM261200 27012KT 5SM -SHRA SCT015 OVC030
     FM261700 27012G20KT P6SM SCT030 BKN120=

USA.gov is the U.S. government's official web portal to all federal, state and local government web resources and services.